sensor_id;sensor_type;location;lat;lon;timestamp;pressure;altitude;pressure_sealevel;temperature;humidity
16595;BME280;8410;52.532;13.336;2023-05-20T00:01:18;102201.31;;;13.51;72.99
16595;BME280;8410;52.532;13.336;2023-05-20T00:03:45;102190.50;;;14.08;71.68
16595;BME280;8410;52.532;13.336;2023-05-20T00:06:13;102205.22;;;13.71;73.11
16595;BME280;8410;52.532;13.336;2023-05-20T00:08:40;102192.66;;;13.88;72.58
16595;BME280;8410;52.532;13.336;2023-05-20T00:11:08;102192.03;;;13.60;72.69
16595;BME280;8410;52.532;13.336;2023-05-20T00:13:35;102195.53;;;13.62;73.73
16595;BME280;8410;52.532;13.336;2023-05-20T00:16:05;102198.03;;;13.59;74.17
16595;BME280;8410;52.532;13.336;2023-05-20T00:18:33;102181.84;;;13.30;74.64
16595;BME280;8410;52.532;13.336;2023-05-20T00:21:00;102194.72;;;13.65;74.16
16595;BME280;8410;52.532;13.336;2023-05-20T00:23:28;102195.41;;;13.23;75.57
16595;BME280;8410;52.532;13.336;2023-05-20T00:25:55;102191.84;;;13.18;76.86
16595;BME280;8410;52.532;13.336;2023-05-20T00:28:26;102183.81;;;13.40;75.43
16595;BME280;8410;52.532;13.336;2023-05-20T00:30:53;102186.16;;;12.96;77.09
16595;BME280;8410;52.532;13.336;2023-05-20T00:33:22;102185.97;;;13.23;76.04
16595;BME280;8410;52.532;13.336;2023-05-20T00:35:49;102188.66;;;13.28;76.58
16595;BME280;8410;52.532;13.336;2023-05-20T00:38:17;102181.91;;;13.70;75.56
16595;BME280;8410;52.532;13.336;2023-05-20T00:40:44;102202.13;;;13.50;74.61
16595;BME280;8410;52.532;13.336;2023-05-20T00:43:12;102192.75;;;13.20;77.07
16595;BME280;8410;52.532;13.336;2023-05-20T00:45:40;102199.94;;;13.30;77.52
16595;BME280;8410;52.532;13.336;2023-05-20T00:48:07;102193.09;;;13.32;76.69
16595;BME280;8410;52.532;13.336;2023-05-20T00:50:36;102196.13;;;13.17;76.04
16595;BME280;8410;52.532;13.336;2023-05-20T00:53:05;102199.63;;;13.53;76.27
16595;BME280;8410;52.532;13.336;2023-05-20T00:55:32;102198.84;;;13.22;78.93
16595;BME280;8410;52.532;13.336;2023-05-20T00:58:01;102197.78;;;13.49;76.89
16595;BME280;8410;52.532;13.336;2023-05-20T01:00:28;102192.03;;;13.60;75.84
16595;BME280;8410;52.532;13.336;2023-05-20T01:02:56;102183.66;;;13.01;78.21
16595;BME280;8410;52.532;13.336;2023-05-20T01:05:24;102187.16;;;12.70;79.69
16595;BME280;8410;52.532;13.336;2023-05-20T01:07:53;102181.91;;;12.67;80.58
16595;BME280;8410;52.532;13.336;2023-05-20T01:10:22;102176.59;;;12.94;80.19
16595;BME280;8410;52.532;13.336;2023-05-20T01:12:57;102186.38;;;12.72;79.95
16595;BME280;8410;52.532;13.336;2023-05-20T01:15:28;102182.97;;;12.75;81.32
16595;BME280;8410;52.532;13.336;2023-05-20T01:17:57;102170.91;;;13.42;80.19
16595;BME280;8410;52.532;13.336;2023-05-20T01:20:27;102175.94;;;13.02;79.84
16595;BME280;8410;52.532;13.336;2023-05-20T01:22:59;102174.44;;;13.11;79.35
16595;BME280;8410;52.532;13.336;2023-05-20T01:25:26;102171.91;;;12.79;81.28
16595;BME280;8410;52.532;13.336;2023-05-20T01:27:55;102170.84;;;13.06;80.07
16595;BME280;8410;52.532;13.336;2023-05-20T01:30:25;102176.38;;;13.19;77.99
16595;BME280;8410;52.532;13.336;2023-05-20T01:32:58;102174.19;;;13.01;80.77
16595;BME280;8410;52.532;13.336;2023-05-20T01:35:28;102168.09;;;13.31;77.98
16595;BME280;8410;52.532;13.336;2023-05-20T01:37:56;102168.09;;;12.65;80.14
16595;BME280;8410;52.532;13.336;2023-05-20T01:40:26;102161.75;;;12.87;81.64
16595;BME280;8410;52.532;13.336;2023-05-20T01:42:54;102146.59;;;13.00;80.36
16595;BME280;8410;52.532;13.336;2023-05-20T01:45:24;102156.34;;;13.45;79.27
16595;BME280;8410;52.532;13.336;2023-05-20T01:47:52;102165.28;;;13.25;79.61
16595;BME280;8410;52.532;13.336;2023-05-20T01:50:20;102160.31;;;13.69;77.91
16595;BME280;8410;52.532;13.336;2023-05-20T01:52:47;102162.72;;;13.25;77.64
16595;BME280;8410;52.532;13.336;2023-05-20T01:55:15;102157.75;;;13.33;78.94
16595;BME280;8410;52.532;13.336;2023-05-20T01:57:43;102157.75;;;14.10;77.01
16595;BME280;8410;52.532;13.336;2023-05-20T02:00:11;102156.53;;;13.55;77.22
16595;BME280;8410;52.532;13.336;2023-05-20T02:02:39;102146.00;;;13.11;78.69
16595;BME280;8410;52.532;13.336;2023-05-20T02:05:08;102154.41;;;13.03;79.91
16595;BME280;8410;52.532;13.336;2023-05-20T02:07:35;102150.66;;;12.57;81.59
16595;BME280;8410;52.532;13.336;2023-05-20T02:10:03;102158.19;;;12.48;82.90
16595;BME280;8410;52.532;13.336;2023-05-20T02:12:31;102146.34;;;12.58;82.82
16595;BME280;8410;52.532;13.336;2023-05-20T02:15:00;102159.94;;;12.51;80.53
16595;BME280;8410;52.532;13.336;2023-05-20T02:17:27;102151.72;;;13.32;80.70
16595;BME280;8410;52.532;13.336;2023-05-20T02:19:55;102151.53;;;12.91;80.88
16595;BME280;8410;52.532;13.336;2023-05-20T02:22:22;102154.75;;;13.17;78.20
16595;BME280;8410;52.532;13.336;2023-05-20T02:24:50;102151.13;;;13.09;80.09
16595;BME280;8410;52.532;13.336;2023-05-20T02:27:17;102156.34;;;13.12;78.68
16595;BME280;8410;52.532;13.336;2023-05-20T02:29:45;102161.22;;;12.67;81.19
16595;BME280;8410;52.532;13.336;2023-05-20T02:32:13;102148.56;;;13.45;79.99
16595;BME280;8410;52.532;13.336;2023-05-20T02:34:41;102149.59;;;12.83;80.53
16595;BME280;8410;52.532;13.336;2023-05-20T02:37:09;102150.81;;;12.64;80.54
16595;BME280;8410;52.532;13.336;2023-05-20T02:39:36;102159.69;;;12.42;82.10
16595;BME280;8410;52.532;13.336;2023-05-20T02:42:04;102159.41;;;13.29;81.02
16595;BME280;8410;52.532;13.336;2023-05-20T02:44:31;102156.34;;;13.45;79.45
16595;BME280;8410;52.532;13.336;2023-05-20T02:46:59;102165.63;;;13.02;80.04
16595;BME280;8410;52.532;13.336;2023-05-20T02:49:27;102158.06;;;13.46;78.33
16595;BME280;8410;52.532;13.336;2023-05-20T02:51:55;102169.97;;;13.38;77.16
16595;BME280;8410;52.532;13.336;2023-05-20T02:54:22;102154.72;;;13.51;77.93
16595;BME280;8410;52.532;13.336;2023-05-20T02:56:50;102168.66;;;12.86;79.59
16595;BME280;8410;52.532;13.336;2023-05-20T02:59:17;102153.75;;;13.45;77.69
16595;BME280;8410;52.532;13.336;2023-05-20T03:01:45;102163.66;;;13.27;78.83
16595;BME280;8410;52.532;13.336;2023-05-20T03:04:12;102161.41;;;12.73;78.71
16595;BME280;8410;52.532;13.336;2023-05-20T03:06:41;102163.72;;;12.62;81.11
16595;BME280;8410;52.532;13.336;2023-05-20T03:09:09;102168.50;;;13.50;78.53
16595;BME280;8410;52.532;13.336;2023-05-20T03:11:37;102167.81;;;13.22;77.39
16595;BME280;8410;52.532;13.336;2023-05-20T03:14:04;102176.53;;;12.92;79.33
16595;BME280;8410;52.532;13.336;2023-05-20T03:16:32;102173.38;;;13.04;77.93
16595;BME280;8410;52.532;13.336;2023-05-20T03:19:00;102178.56;;;13.04;78.18
16595;BME280;8410;52.532;13.336;2023-05-20T03:21:28;102179.50;;;12.41;81.13
16595;BME280;8410;52.532;13.336;2023-05-20T03:23:57;102176.69;;;12.97;79.83
16595;BME280;8410;52.532;13.336;2023-05-20T03:26:24;102177.88;;;13.10;79.33
16595;BME280;8410;52.532;13.336;2023-05-20T03:28:52;102175.13;;;13.75;77.47
16595;BME280;8410;52.532;13.336;2023-05-20T03:31:19;102178.59;;;13.39;77.28
16595;BME280;8410;52.532;13.336;2023-05-20T03:33:47;102184.28;;;12.29;81.68
16595;BME280;8410;52.532;13.336;2023-05-20T03:36:14;102179.84;;;12.87;79.83
16595;BME280;8410;52.532;13.336;2023-05-20T03:38:42;102180.72;;;12.87;79.96
16595;BME280;8410;52.532;13.336;2023-05-20T03:41:10;102192.34;;;12.40;80.13
16595;BME280;8410;52.532;13.336;2023-05-20T03:43:38;102185.81;;;12.52;82.94
16595;BME280;8410;52.532;13.336;2023-05-20T03:46:05;102187.00;;;12.33;82.56
16595;BME280;8410;52.532;13.336;2023-05-20T03:48:33;102193.56;;;12.52;82.21
16595;BME280;8410;52.532;13.336;2023-05-20T03:51:00;102194.38;;;12.20;83.88
16595;BME280;8410;52.532;13.336;2023-05-20T03:53:28;102191.34;;;12.66;81.59
16595;BME280;8410;52.532;13.336;2023-05-20T03:55:56;102191.41;;;12.36;82.21
16595;BME280;8410;52.532;13.336;2023-05-20T03:58:25;102187.72;;;12.91;80.96
16595;BME280;8410;52.532;13.336;2023-05-20T04:00:54;102206.59;;;11.97;82.25
16595;BME280;8410;52.532;13.336;2023-05-20T04:03:22;102191.56;;;12.12;82.58
16595;BME280;8410;52.532;13.336;2023-05-20T04:05:49;102188.50;;;11.95;85.71
16595;BME280;8410;52.532;13.336;2023-05-20T04:08:17;102190.66;;;11.83;83.62
16595;BME280;8410;52.532;13.336;2023-05-20T04:10:45;102188.06;;;11.83;84.91
16595;BME280;8410;52.532;13.336;2023-05-20T04:13:12;102181.84;;;12.97;81.13
16595;BME280;8410;52.532;13.336;2023-05-20T04:15:41;102181.91;;;12.67;84.09
16595;BME280;8410;52.532;13.336;2023-05-20T04:18:09;102185.97;;;12.57;83.21
16595;BME280;8410;52.532;13.336;2023-05-20T04:20:37;102186.47;;;12.45;82.98
16595;BME280;8410;52.532;13.336;2023-05-20T04:23:06;102185.97;;;12.57;82.12
16595;BME280;8410;52.532;13.336;2023-05-20T04:25:34;102181.56;;;12.54;82.25
16595;BME280;8410;52.532;13.336;2023-05-20T04:28:02;102182.16;;;12.44;83.71
16595;BME280;8410;52.532;13.336;2023-05-20T04:30:30;102180.38;;;12.75;82.18
16595;BME280;8410;52.532;13.336;2023-05-20T04:33:00;102181.31;;;11.86;85.37
16595;BME280;8410;52.532;13.336;2023-05-20T04:35:29;102186.13;;;11.76;86.84
16595;BME280;8410;52.532;13.336;2023-05-20T04:37:56;102180.41;;;12.13;85.71
16595;BME280;8410;52.532;13.336;2023-05-20T04:40:24;102186.47;;;11.59;87.93
16595;BME280;8410;52.532;13.336;2023-05-20T04:42:52;102192.47;;;11.58;87.77
16595;BME280;8410;52.532;13.336;2023-05-20T04:45:21;102191.88;;;11.94;86.83
16595;BME280;8410;52.532;13.336;2023-05-20T04:47:49;102194.81;;;12.35;84.74
16595;BME280;8410;52.532;13.336;2023-05-20T04:50:20;102196.59;;;12.68;83.96
16595;BME280;8410;52.532;13.336;2023-05-20T04:52:47;102199.91;;;12.03;85.39
16595;BME280;8410;52.532;13.336;2023-05-20T04:55:15;102197.53;;;11.82;86.11
16595;BME280;8410;52.532;13.336;2023-05-20T04:57:43;102198.50;;;12.43;84.91
16595;BME280;8410;52.532;13.336;2023-05-20T05:00:12;102188.97;;;12.12;86.74
16595;BME280;8410;52.532;13.336;2023-05-20T05:02:39;102187.09;;;12.06;85.72
16595;BME280;8410;52.532;13.336;2023-05-20T05:05:07;102179.91;;;11.96;87.41
16595;BME280;8410;52.532;13.336;2023-05-20T05:07:37;102173.75;;;12.85;83.44
16595;BME280;8410;52.532;13.336;2023-05-20T05:10:05;102179.59;;;11.58;87.70
16595;BME280;8410;52.532;13.336;2023-05-20T05:12:33;102174.59;;;11.63;89.65
16595;BME280;8410;52.532;13.336;2023-05-20T05:15:00;102176.25;;;12.48;86.32
16595;BME280;8410;52.532;13.336;2023-05-20T05:17:28;102176.41;;;11.94;87.24
16595;BME280;8410;52.532;13.336;2023-05-20T05:19:55;102173.88;;;12.26;88.58
16595;BME280;8410;52.532;13.336;2023-05-20T05:22:23;102170.53;;;12.60;84.64
16595;BME280;8410;52.532;13.336;2023-05-20T05:24:52;102171.47;;;12.32;86.76
16595;BME280;8410;52.532;13.336;2023-05-20T05:27:20;102177.47;;;12.31;86.85
16595;BME280;8410;52.532;13.336;2023-05-20T05:29:49;102177.41;;;12.28;87.74
16595;BME280;8410;52.532;13.336;2023-05-20T05:32:16;102173.94;;;12.27;87.22
16595;BME280;8410;52.532;13.336;2023-05-20T05:34:44;102182.25;;;12.17;88.23
16595;BME280;8410;52.532;13.336;2023-05-20T05:37:11;102178.50;;;12.07;90.08
16595;BME280;8410;52.532;13.336;2023-05-20T05:39:39;102169.97;;;12.72;86.42
16595;BME280;8410;52.532;13.336;2023-05-20T05:42:08;102176.78;;;13.01;84.00
16595;BME280;8410;52.532;13.336;2023-05-20T05:44:35;102170.53;;;12.93;85.98
16595;BME280;8410;52.532;13.336;2023-05-20T05:47:03;102164.63;;;12.97;85.44
16595;BME280;8410;52.532;13.336;2023-05-20T05:49:32;102177.63;;;12.37;86.85
16595;BME280;8410;52.532;13.336;2023-05-20T05:51:59;102174.91;;;12.02;89.37
16595;BME280;8410;52.532;13.336;2023-05-20T05:54:27;102174.66;;;12.22;90.97
16595;BME280;8410;52.532;13.336;2023-05-20T05:56:54;102166.38;;;12.03;90.37
16595;BME280;8410;52.532;13.336;2023-05-20T05:59:24;102156.84;;;12.64;87.81
16595;BME280;8410;52.532;13.336;2023-05-20T06:01:51;102156.53;;;12.85;87.39
16595;BME280;8410;52.532;13.336;2023-05-20T06:04:19;102154.59;;;13.44;85.28
16595;BME280;8410;52.532;13.336;2023-05-20T06:06:46;102151.16;;;12.76;86.57
16595;BME280;8410;52.532;13.336;2023-05-20T06:09:14;102158.25;;;12.51;87.26
16595;BME280;8410;52.532;13.336;2023-05-20T06:11:42;102154.88;;;12.87;88.23
16595;BME280;8410;52.532;13.336;2023-05-20T06:14:09;102144.28;;;13.11;86.29
16595;BME280;8410;52.532;13.336;2023-05-20T06:16:38;102146.13;;;13.52;84.04
16595;BME280;8410;52.532;13.336;2023-05-20T06:19:06;102141.88;;;13.19;87.51
16595;BME280;8410;52.532;13.336;2023-05-20T06:21:35;102145.19;;;12.47;90.10
16595;BME280;8410;52.532;13.336;2023-05-20T06:24:02;102153.97;;;12.52;88.38
16595;BME280;8410;52.532;13.336;2023-05-20T06:26:30;102163.03;;;12.38;90.06
16595;BME280;8410;52.532;13.336;2023-05-20T06:28:57;102154.66;;;12.46;90.67
16595;BME280;8410;52.532;13.336;2023-05-20T06:31:25;102156.34;;;12.77;87.80
16595;BME280;8410;52.532;13.336;2023-05-20T06:33:54;102159.97;;;12.84;88.67
16595;BME280;8410;52.532;13.336;2023-05-20T06:36:22;102148.66;;;13.14;87.71
16595;BME280;8410;52.532;13.336;2023-05-20T06:38:49;102155.38;;;12.72;89.21
16595;BME280;8410;52.532;13.336;2023-05-20T06:41:16;102155.72;;;13.21;86.71
16595;BME280;8410;52.532;13.336;2023-05-20T06:43:45;102154.66;;;13.13;87.32
16595;BME280;8410;52.532;13.336;2023-05-20T06:46:12;102159.13;;;12.85;87.27
16595;BME280;8410;52.532;13.336;2023-05-20T06:48:40;102163.72;;;12.64;89.90
16595;BME280;8410;52.532;13.336;2023-05-20T06:51:09;102155.72;;;13.21;88.63
16595;BME280;8410;52.532;13.336;2023-05-20T06:53:36;102158.81;;;12.73;88.94
16595;BME280;8410;52.532;13.336;2023-05-20T06:56:04;102154.22;;;12.96;88.82
16595;BME280;8410;52.532;13.336;2023-05-20T06:58:32;102145.63;;;13.30;87.52
16595;BME280;8410;52.532;13.336;2023-05-20T07:00:59;102146.91;;;13.13;86.83
16595;BME280;8410;52.532;13.336;2023-05-20T07:03:27;102140.31;;;13.62;86.70
16595;BME280;8410;52.532;13.336;2023-05-20T07:05:55;102149.44;;;13.44;85.70
16595;BME280;8410;52.532;13.336;2023-05-20T07:08:24;102150.03;;;13.72;85.64
16595;BME280;8410;52.532;13.336;2023-05-20T07:10:54;102152.28;;;13.98;83.80
16595;BME280;8410;52.532;13.336;2023-05-20T07:13:21;102148.25;;;14.53;83.22
16595;BME280;8410;52.532;13.336;2023-05-20T07:15:49;102144.78;;;14.10;82.78
16595;BME280;8410;52.532;13.336;2023-05-20T07:18:17;102142.97;;;13.65;85.25
16595;BME280;8410;52.532;13.336;2023-05-20T07:20:45;102145.78;;;13.74;86.57
16595;BME280;8410;52.532;13.336;2023-05-20T07:23:12;102147.09;;;13.57;86.87
16595;BME280;8410;52.532;13.336;2023-05-20T07:25:42;102137.53;;;14.82;82.27
16595;BME280;8410;52.532;13.336;2023-05-20T07:28:10;102140.44;;;14.51;81.36
16595;BME280;8410;52.532;13.336;2023-05-20T07:30:37;102139.38;;;14.43;82.78
16595;BME280;8410;52.532;13.336;2023-05-20T07:33:04;102141.50;;;14.17;84.25
16595;BME280;8410;52.532;13.336;2023-05-20T07:35:32;102138.06;;;13.77;85.07
16595;BME280;8410;52.532;13.336;2023-05-20T07:38:00;102133.66;;;14.14;82.78
16595;BME280;8410;52.532;13.336;2023-05-20T07:40:27;102128.19;;;14.44;84.81
16595;BME280;8410;52.532;13.336;2023-05-20T07:42:56;102121.34;;;14.95;81.77
16595;BME280;8410;52.532;13.336;2023-05-20T07:45:23;102111.03;;;14.98;79.89
16595;BME280;8410;52.532;13.336;2023-05-20T07:47:51;102127.84;;;14.71;80.56
16595;BME280;8410;52.532;13.336;2023-05-20T07:50:19;102132.00;;;14.62;81.12
16595;BME280;8410;52.532;13.336;2023-05-20T07:52:46;102123.13;;;14.99;81.12
16595;BME280;8410;52.532;13.336;2023-05-20T07:55:22;102119.78;;;14.54;83.03
16595;BME280;8410;52.532;13.336;2023-05-20T07:57:51;102119.72;;;14.51;81.73
16595;BME280;8410;52.532;13.336;2023-05-20T08:00:20;102116.84;;;14.38;81.88
16595;BME280;8410;52.532;13.336;2023-05-20T08:02:48;102116.28;;;14.52;82.50
16595;BME280;8410;52.532;13.336;2023-05-20T08:05:16;102101.34;;;14.88;81.01
16595;BME280;8410;52.532;13.336;2023-05-20T08:07:43;102111.34;;;14.66;80.02
16595;BME280;8410;52.532;13.336;2023-05-20T08:10:11;102101.66;;;14.56;81.58
16595;BME280;8410;52.532;13.336;2023-05-20T08:12:38;102102.03;;;14.76;80.60
16595;BME280;8410;52.532;13.336;2023-05-20T08:15:07;102100.47;;;14.89;81.52
16595;BME280;8410;52.532;13.336;2023-05-20T08:17:36;102107.78;;;15.11;79.90
16595;BME280;8410;52.532;13.336;2023-05-20T08:20:05;102095.09;;;15.30;79.49
16595;BME280;8410;52.532;13.336;2023-05-20T08:22:33;102095.06;;;14.73;81.73
16595;BME280;8410;52.532;13.336;2023-05-20T08:25:01;102092.38;;;15.84;77.32
16595;BME280;8410;52.532;13.336;2023-05-20T08:27:29;102094.78;;;15.10;79.03
16595;BME280;8410;52.532;13.336;2023-05-20T08:29:57;102108.00;;;14.72;80.37
16595;BME280;8410;52.532;13.336;2023-05-20T08:32:26;102091.53;;;14.68;81.20
16595;BME280;8410;52.532;13.336;2023-05-20T08:34:55;102088.41;;;14.91;79.54
16595;BME280;8410;52.532;13.336;2023-05-20T08:37:22;102085.34;;;15.13;79.24
16595;BME280;8410;52.532;13.336;2023-05-20T08:39:49;102081.50;;;15.48;77.97
16595;BME280;8410;52.532;13.336;2023-05-20T08:42:20;102071.31;;;15.63;77.03
16595;BME280;8410;52.532;13.336;2023-05-20T08:44:49;102075.47;;;16.19;75.55
16595;BME280;8410;52.532;13.336;2023-05-20T08:47:18;102070.81;;;15.90;76.95
16595;BME280;8410;52.532;13.336;2023-05-20T08:49:46;102079.44;;;15.86;76.33
16595;BME280;8410;52.532;13.336;2023-05-20T08:52:16;102078.53;;;15.84;75.58
16595;BME280;8410;52.532;13.336;2023-05-20T08:54:48;102075.97;;;15.87;75.55
16595;BME280;8410;52.532;13.336;2023-05-20T08:57:16;102071.13;;;16.19;75.07
16595;BME280;8410;52.532;13.336;2023-05-20T08:59:45;102091.13;;;15.56;76.48
16595;BME280;8410;52.532;13.336;2023-05-20T09:02:13;102070.16;;;16.08;76.24
16595;BME280;8410;52.532;13.336;2023-05-20T09:04:41;102078.91;;;15.49;77.45
16595;BME280;8410;52.532;13.336;2023-05-20T09:07:09;102074.22;;;15.86;76.41
16595;BME280;8410;52.532;13.336;2023-05-20T09:09:38;102082.75;;;15.76;77.49
16595;BME280;8410;52.532;13.336;2023-05-20T09:12:06;102064.47;;;16.44;76.04
16595;BME280;8410;52.532;13.336;2023-05-20T09:14:34;102079.84;;;16.23;75.30
16595;BME280;8410;52.532;13.336;2023-05-20T09:17:03;102079.00;;;16.25;75.34
16595;BME280;8410;52.532;13.336;2023-05-20T09:19:31;102087.25;;;15.89;75.92
16595;BME280;8410;52.532;13.336;2023-05-20T09:22:02;102076.91;;;15.92;76.05
16595;BME280;8410;52.532;13.336;2023-05-20T09:24:30;102072.59;;;15.94;76.82
16595;BME280;8410;52.532;13.336;2023-05-20T09:26:59;102065.19;;;15.56;77.34
16595;BME280;8410;52.532;13.336;2023-05-20T09:29:26;102075.09;;;15.86;76.73
16595;BME280;8410;52.532;13.336;2023-05-20T09:31:54;102068.72;;;15.61;77.26
16595;BME280;8410;52.532;13.336;2023-05-20T09:34:22;102060.97;;;15.66;76.49
16595;BME280;8410;52.532;13.336;2023-05-20T09:36:50;102065.59;;;15.90;77.58
16595;BME280;8410;52.532;13.336;2023-05-20T09:39:24;102058.13;;;16.19;75.01
16595;BME280;8410;52.532;13.336;2023-05-20T09:42:04;102069.16;;;15.31;78.22
16595;BME280;8410;52.532;13.336;2023-05-20T09:44:33;102061.75;;;15.60;78.81
16595;BME280;8410;52.532;13.336;2023-05-20T09:47:01;102062.47;;;16.19;77.05
16595;BME280;8410;52.532;13.336;2023-05-20T09:49:31;102061.09;;;16.56;75.44
16595;BME280;8410;52.532;13.336;2023-05-20T09:52:01;102059.69;;;16.90;73.56
16595;BME280;8410;52.532;13.336;2023-05-20T09:54:29;102061.50;;;16.07;76.07
16595;BME280;8410;52.532;13.336;2023-05-20T09:56:59;102059.66;;;16.00;76.19
16595;BME280;8410;52.532;13.336;2023-05-20T09:59:28;102064.97;;;16.11;76.42
16595;BME280;8410;52.532;13.336;2023-05-20T10:01:57;102061.59;;;16.18;76.46
16595;BME280;8410;52.532;13.336;2023-05-20T10:04:26;102066.94;;;16.32;75.02
16595;BME280;8410;52.532;13.336;2023-05-20T10:07:17;102058.03;;;17.05;72.64
16595;BME280;8410;52.532;13.336;2023-05-20T10:10:15;102050.28;;;17.12;70.99
16595;BME280;8410;52.532;13.336;2023-05-20T10:12:52;102057.59;;;16.49;74.17
16595;BME280;8410;52.532;13.336;2023-05-20T10:15:26;102060.66;;;16.12;75.59
16595;BME280;8410;52.532;13.336;2023-05-20T10:18:04;102063.06;;;15.93;77.18
16595;BME280;8410;52.532;13.336;2023-05-20T10:20:44;102055.81;;;16.45;76.01
16595;BME280;8410;52.532;13.336;2023-05-20T10:23:19;102058.97;;;16.15;76.85
16595;BME280;8410;52.532;13.336;2023-05-20T10:25:50;102060.47;;;15.93;77.21
16595;BME280;8410;52.532;13.336;2023-05-20T10:28:27;102047.97;;;16.42;76.77
16595;BME280;8410;52.532;13.336;2023-05-20T10:30:57;102042.88;;;16.53;75.73
16595;BME280;8410;52.532;13.336;2023-05-20T10:33:25;102044.88;;;16.82;74.24
16595;BME280;8410;52.532;13.336;2023-05-20T10:35:56;102041.63;;;16.13;76.53
16595;BME280;8410;52.532;13.336;2023-05-20T10:38:24;102039.38;;;16.49;76.04
16595;BME280;8410;52.532;13.336;2023-05-20T10:40:52;102036.72;;;16.43;75.79
16595;BME280;8410;52.532;13.336;2023-05-20T10:43:25;102042.56;;;17.26;73.80
16595;BME280;8410;52.532;13.336;2023-05-20T10:45:54;102035.34;;;16.82;73.64
16595;BME280;8410;52.532;13.336;2023-05-20T10:48:25;102026.44;;;16.56;75.45
16595;BME280;8410;52.532;13.336;2023-05-20T10:50:54;102025.66;;;16.67;75.69
16595;BME280;8410;52.532;13.336;2023-05-20T10:53:25;102021.56;;;16.92;74.59
16595;BME280;8410;52.532;13.336;2023-05-20T10:56:00;102022.84;;;16.41;76.02
16595;BME280;8410;52.532;13.336;2023-05-20T10:58:35;102016.34;;;16.92;74.50
16595;BME280;8410;52.532;13.336;2023-05-20T11:01:03;102016.06;;;16.62;75.41
16595;BME280;8410;52.532;13.336;2023-05-20T11:03:33;102019.31;;;17.68;72.35
16595;BME280;8410;52.532;13.336;2023-05-20T11:06:10;102011.56;;;17.81;71.91
16595;BME280;8410;52.532;13.336;2023-05-20T11:08:37;102010.47;;;17.24;73.20
16595;BME280;8410;52.532;13.336;2023-05-20T11:11:05;101998.16;;;16.98;73.49
16595;BME280;8410;52.532;13.336;2023-05-20T11:13:33;101992.06;;;16.96;73.18
16595;BME280;8410;52.532;13.336;2023-05-20T11:16:01;101994.41;;;16.58;74.28
16595;BME280;8410;52.532;13.336;2023-05-20T11:18:30;101996.31;;;16.84;73.09
16595;BME280;8410;52.532;13.336;2023-05-20T11:21:00;101982.00;;;17.67;71.32
16595;BME280;8410;52.532;13.336;2023-05-20T11:23:29;101999.25;;;17.40;71.70
16595;BME280;8410;52.532;13.336;2023-05-20T11:25:56;101997.38;;;17.12;72.94
16595;BME280;8410;52.532;13.336;2023-05-20T11:28:24;101980.38;;;18.21;69.92
16595;BME280;8410;52.532;13.336;2023-05-20T11:30:52;101980.22;;;17.60;70.89
16595;BME280;8410;52.532;13.336;2023-05-20T11:33:19;101973.41;;;18.14;69.48
16595;BME280;8410;52.532;13.336;2023-05-20T11:35:50;101975.16;;;18.46;69.49
16595;BME280;8410;52.532;13.336;2023-05-20T11:38:20;101969.03;;;19.01;67.17
16595;BME280;8410;52.532;13.336;2023-05-20T11:40:50;101970.81;;;18.56;67.47
16595;BME280;8410;52.532;13.336;2023-05-20T11:43:20;101993.44;;;18.26;68.00
16595;BME280;8410;52.532;13.336;2023-05-20T11:45:52;101971.69;;;18.24;68.02
16595;BME280;8410;52.532;13.336;2023-05-20T11:48:20;101975.16;;;18.46;68.15
16595;BME280;8410;52.532;13.336;2023-05-20T11:50:48;101976.03;;;18.37;69.38
16595;BME280;8410;52.532;13.336;2023-05-20T11:53:16;101979.38;;;17.75;70.44
16595;BME280;8410;52.532;13.336;2023-05-20T11:55:47;101969.94;;;18.17;68.96
16595;BME280;8410;52.532;13.336;2023-05-20T11:58:15;101952.53;;;18.88;67.38
16595;BME280;8410;52.532;13.336;2023-05-20T12:00:44;101956.88;;;18.52;67.73
16595;BME280;8410;52.532;13.336;2023-05-20T12:03:20;101963.00;;;18.05;69.78
16595;BME280;8410;52.532;13.336;2023-05-20T12:05:48;101963.00;;;18.33;68.54
16595;BME280;8410;52.532;13.336;2023-05-20T12:08:16;101949.00;;;19.01;67.78
16595;BME280;8410;52.532;13.336;2023-05-20T12:10:45;101943.03;;;18.24;68.94
16595;BME280;8410;52.532;13.336;2023-05-20T12:13:13;101939.53;;;18.34;68.46
16595;BME280;8410;52.532;13.336;2023-05-20T12:15:41;101937.34;;;19.79;65.43
16595;BME280;8410;52.532;13.336;2023-05-20T12:18:08;101947.38;;;18.31;68.30
16595;BME280;8410;52.532;13.336;2023-05-20T12:20:37;101935.19;;;18.50;68.69
16595;BME280;8410;52.532;13.336;2023-05-20T12:23:05;101934.28;;;18.60;68.18
16595;BME280;8410;52.532;13.336;2023-05-20T12:25:32;101938.66;;;18.46;69.05
16595;BME280;8410;52.532;13.336;2023-05-20T12:28:01;101935.13;;;18.87;68.19
16595;BME280;8410;52.532;13.336;2023-05-20T12:30:29;101922.13;;;18.56;68.73
16595;BME280;8410;52.532;13.336;2023-05-20T12:32:57;101920.25;;;19.16;67.43
16595;BME280;8410;52.532;13.336;2023-05-20T12:35:36;101915.06;;;19.09;67.46
16595;BME280;8410;52.532;13.336;2023-05-20T12:38:04;101911.63;;;18.91;67.64
16595;BME280;8410;52.532;13.336;2023-05-20T12:40:32;101912.59;;;18.27;68.58
16595;BME280;8410;52.532;13.336;2023-05-20T12:43:03;101911.72;;;18.53;68.64
16595;BME280;8410;52.532;13.336;2023-05-20T12:45:31;101903.91;;;18.38;68.82
16595;BME280;8410;52.532;13.336;2023-05-20T12:47:59;101899.56;;;18.30;69.33
16595;BME280;8410;52.532;13.336;2023-05-20T12:50:27;101900.41;;;18.54;69.55
16595;BME280;8410;52.532;13.336;2023-05-20T12:52:54;101897.00;;;17.94;70.15
16595;BME280;8410;52.532;13.336;2023-05-20T12:55:22;101900.44;;;17.93;70.40
16595;BME280;8410;52.532;13.336;2023-05-20T12:57:49;101903.03;;;17.90;71.07